createdAt,value
2018-04-08T00:02:11.270Z,10.60
2018-04-08T00:04:41.709Z,10.70
2018-04-08T00:07:11.274Z,10.70
2018-04-08T00:09:40.563Z,10.60
2018-04-08T00:12:10.100Z,10.60
2018-04-08T00:14:39.675Z,10.50
2018-04-08T00:17:09.215Z,10.40
2018-04-08T00:19:39.150Z,10.40
2018-04-08T00:22:08.694Z,10.50
2018-04-08T00:24:38.242Z,10.40
2018-04-08T00:27:07.835Z,10.30
2018-04-08T00:29:37.404Z,10.40
2018-04-08T00:32:06.912Z,10.30
2018-04-08T00:34:36.438Z,10.30
2018-04-08T00:37:05.987Z,10.20
2018-04-08T00:39:35.562Z,10.20
2018-04-08T00:42:04.921Z,10.10
2018-04-08T00:44:34.498Z,10.10
2018-04-08T00:47:04.122Z,10.00
2018-04-08T00:49:33.434Z,10.10
2018-04-08T00:52:02.946Z,10.00
2018-04-08T00:54:31.984Z,10.10
2018-04-08T00:57:01.565Z,10.00
2018-04-08T00:59:30.328Z,10.10
2018-04-08T01:01:59.062Z,10.00
2018-04-08T01:04:28.124Z,10.10
2018-04-08T01:06:57.130Z,9.90
2018-04-08T01:09:26.204Z,9.90
2018-04-08T01:11:55.300Z,9.80
2018-04-08T01:14:24.276Z,9.80
2018-04-08T01:16:53.181Z,9.80
2018-04-08T01:19:22.402Z,9.70
2018-04-08T01:21:51.993Z,9.70
2018-04-08T01:24:21.541Z,9.60
2018-04-08T01:26:51.480Z,9.60
2018-04-08T01:29:20.767Z,9.70
2018-04-08T01:31:50.231Z,9.60
2018-04-08T01:34:19.811Z,9.60
2018-04-08T01:36:49.571Z,9.60
2018-04-08T01:39:19.338Z,9.60
2018-04-08T01:41:48.939Z,9.50
2018-04-08T01:44:18.240Z,9.60
2018-04-08T01:46:48.132Z,9.50
2018-04-08T01:49:17.742Z,9.50
2018-04-08T01:51:47.303Z,9.50
2018-04-08T01:54:16.848Z,9.40
2018-04-08T01:56:46.410Z,9.40
2018-04-08T01:59:16.218Z,9.50
2018-04-08T02:01:46.093Z,9.40
2018-04-08T02:04:15.818Z,9.50
2018-04-08T02:06:45.345Z,9.40
2018-04-08T02:09:14.902Z,9.40
2018-04-08T02:11:44.414Z,9.60
2018-04-08T02:14:13.996Z,9.60
2018-04-08T02:16:43.558Z,9.60
2018-04-08T02:19:13.199Z,9.60
2018-04-08T02:21:42.705Z,9.70
2018-04-08T02:24:12.254Z,9.60
2018-04-08T02:26:42.193Z,9.80
2018-04-08T02:29:11.698Z,9.80
2018-04-08T02:31:41.257Z,9.90
2018-04-08T02:34:10.822Z,9.90
2018-04-08T02:36:40.340Z,9.80
2018-04-08T02:39:10.085Z,9.90
2018-04-08T02:41:39.572Z,9.90
2018-04-08T02:44:09.095Z,10.10
2018-04-08T02:46:38.758Z,10.10
2018-04-08T02:49:08.283Z,10.10
2018-04-08T02:51:37.829Z,10.10
2018-04-08T02:54:07.406Z,10.10
2018-04-08T02:56:36.910Z,10.10
2018-04-08T02:59:06.449Z,10.20
2018-04-08T03:01:35.987Z,10.20
2018-04-08T03:04:05.537Z,10.20
2018-04-08T03:06:35.075Z,10.30
2018-04-08T03:09:03.958Z,10.30
2018-04-08T03:11:33.214Z,10.30
2018-04-08T03:14:02.766Z,10.30
2018-04-08T03:16:32.313Z,10.20
2018-04-08T03:19:01.853Z,10.40
2018-04-08T03:21:31.082Z,10.40
2018-04-08T03:24:00.438Z,10.40
2018-04-08T03:26:29.988Z,10.40
2018-04-08T03:28:59.590Z,10.50
2018-04-08T03:31:29.143Z,10.50
2018-04-08T03:33:58.742Z,10.40
2018-04-08T03:36:28.654Z,10.40
2018-04-08T03:38:58.324Z,10.40
2018-04-08T03:41:27.860Z,10.20
2018-04-08T03:43:57.870Z,10.20
2018-04-08T03:46:27.796Z,10.10
2018-04-08T03:48:58.207Z,10.00
2018-04-08T03:51:27.515Z,10.20
2018-04-08T03:53:57.182Z,10.00
2018-04-08T03:56:26.457Z,10.00
2018-04-08T03:58:56.035Z,9.90
2018-04-08T04:01:25.721Z,9.80
2018-04-08T04:03:55.353Z,9.80
2018-04-08T04:06:25.066Z,9.70
2018-04-08T04:08:54.596Z,9.70
2018-04-08T04:11:23.873Z,9.50
2018-04-08T04:13:53.537Z,9.60
2018-04-08T04:16:22.823Z,9.60
2018-04-08T04:19:03.463Z,9.30
2018-04-08T04:21:43.682Z,9.40
2018-04-08T04:38:02.643Z,9.20
2018-04-08T04:40:32.098Z,9.20
2018-04-08T04:43:02.212Z,9.20
2018-04-08T04:45:31.670Z,9.20
2018-04-08T04:48:01.394Z,9.20
2018-04-08T04:50:31.253Z,9.20
2018-04-08T04:53:00.723Z,9.30
2018-04-08T04:55:30.219Z,9.20
2018-04-08T04:57:59.682Z,9.10
2018-04-08T05:00:28.994Z,9.20
2018-04-08T05:02:58.285Z,9.00
2018-04-08T05:05:27.870Z,9.00
2018-04-08T05:07:57.700Z,9.00
2018-04-08T05:10:27.229Z,9.00
2018-04-08T05:12:56.766Z,9.00
2018-04-08T05:15:26.634Z,9.10
2018-04-08T05:17:56.175Z,9.00
2018-04-08T05:20:25.727Z,9.00
2018-04-08T05:22:55.262Z,9.00
2018-04-08T05:25:24.815Z,9.10
2018-04-08T05:27:54.313Z,9.10
2018-04-08T05:30:24.323Z,8.90
2018-04-08T05:32:53.836Z,9.00
2018-04-08T05:35:23.438Z,9.00
2018-04-08T05:37:52.971Z,9.00
2018-04-08T05:40:22.493Z,9.00
2018-04-08T05:42:52.282Z,9.10
2018-04-08T05:45:22.218Z,9.20
2018-04-08T05:47:51.735Z,9.20
2018-04-08T05:50:21.274Z,9.20
2018-04-08T05:52:50.601Z,9.30
2018-04-08T05:55:20.094Z,9.30
2018-04-08T05:57:49.626Z,9.30
2018-04-08T06:00:19.155Z,9.40
2018-04-08T06:02:48.681Z,9.50
2018-04-08T06:05:18.210Z,9.60
2018-04-08T06:07:47.886Z,9.60
2018-04-08T06:10:17.401Z,9.60
2018-04-08T06:12:46.930Z,9.80
2018-04-08T06:15:16.451Z,9.90
2018-04-08T06:17:46.352Z,10.00
2018-04-08T06:20:15.761Z,10.10
2018-04-08T06:22:45.341Z,10.10
2018-04-08T06:25:14.675Z,10.10
2018-04-08T06:27:43.957Z,10.10
2018-04-08T06:30:13.526Z,10.20
2018-04-08T06:32:43.260Z,10.40
2018-04-08T06:35:12.548Z,10.50
2018-04-08T06:37:41.840Z,10.50
2018-04-08T06:40:11.144Z,10.60
2018-04-08T06:42:40.378Z,10.70
2018-04-08T06:45:10.382Z,10.90
2018-04-08T06:47:39.667Z,10.90
2018-04-08T06:50:10.927Z,11.10
2018-04-08T06:52:40.463Z,11.10
2018-04-08T06:55:10.428Z,11.40
2018-04-08T06:57:39.703Z,11.40
2018-04-08T07:00:09.925Z,11.50
2018-04-08T07:02:39.538Z,11.70
2018-04-08T07:05:08.883Z,11.90
2018-04-08T07:07:38.392Z,12.00
2018-04-08T07:10:07.808Z,12.20
2018-04-08T07:12:37.096Z,12.30
2018-04-08T07:15:06.362Z,12.40
2018-04-08T07:17:37.047Z,12.40
2018-04-08T07:20:14.934Z,12.50
2018-04-08T07:22:44.447Z,12.60
2018-04-08T07:25:13.954Z,12.80
2018-04-08T07:27:43.530Z,12.80
2018-04-08T07:30:12.810Z,13.00
2018-04-08T07:32:43.364Z,13.10
2018-04-08T07:35:13.559Z,13.20
2018-04-08T07:37:43.115Z,13.40
2018-04-08T07:40:12.665Z,13.50
2018-04-08T07:42:42.934Z,14.00
2018-04-08T07:45:12.406Z,14.10
2018-04-08T07:47:42.528Z,14.30
2018-04-08T07:50:13.381Z,14.60
2018-04-08T07:52:43.325Z,14.50
2018-04-08T07:55:13.018Z,14.70
2018-04-08T07:57:42.566Z,15.00
2018-04-08T08:00:12.483Z,15.50
2018-04-08T08:02:42.502Z,15.60
2018-04-08T08:05:12.566Z,15.80
2018-04-08T08:07:43.003Z,15.80
2018-04-08T08:10:13.274Z,15.90
2018-04-08T08:12:43.226Z,16.10
2018-04-08T08:15:12.810Z,16.00
2018-04-08T08:17:42.396Z,16.20
2018-04-08T08:20:12.011Z,16.30
2018-04-08T08:22:43.467Z,16.30
2018-04-08T08:25:17.210Z,16.40
2018-04-08T08:27:49.222Z,16.60
2018-04-08T08:30:19.292Z,16.80
2018-04-08T08:32:48.891Z,17.10
2018-04-08T08:35:18.474Z,17.30
2018-04-08T08:37:48.153Z,17.40
2018-04-08T08:40:17.808Z,17.50
2018-04-08T08:42:47.318Z,17.80
2018-04-08T08:45:16.990Z,17.80
2018-04-08T08:47:47.799Z,17.90
2018-04-08T08:50:18.091Z,18.00
2018-04-08T08:52:47.707Z,18.10
2018-04-08T08:55:18.615Z,18.20
2018-04-08T08:57:49.134Z,18.40
2018-04-08T09:00:18.686Z,18.50
2018-04-08T09:02:48.366Z,18.80
2018-04-08T09:05:17.994Z,19.10
2018-04-08T09:07:47.576Z,19.10
2018-04-08T09:10:17.577Z,19.20
2018-04-08T09:12:47.836Z,19.20
2018-04-08T09:15:16.845Z,19.30
2018-04-08T09:17:46.825Z,19.50
2018-04-08T09:20:22.207Z,19.80
2018-04-08T09:23:07.502Z,20.00
2018-04-08T09:25:41.457Z,20.30
2018-04-08T09:28:11.566Z,20.50
2018-04-08T09:30:41.309Z,20.50
2018-04-08T09:33:10.894Z,20.60
2018-04-08T09:35:40.521Z,20.80
2018-04-08T09:38:10.089Z,20.90
2018-04-08T09:40:39.679Z,21.20
2018-04-08T09:43:09.298Z,21.40
2018-04-08T09:45:39.021Z,21.30
2018-04-08T09:48:08.828Z,21.30
2018-04-08T09:50:38.598Z,21.40
2018-04-08T09:53:08.133Z,21.50
2018-04-08T09:55:37.440Z,21.60
2018-04-08T09:58:08.253Z,21.60
2018-04-08T10:03:26.870Z,21.60
2018-04-08T10:05:55.957Z,21.60
2018-04-08T10:08:25.825Z,21.70
2018-04-08T10:10:56.267Z,21.80
2018-04-08T10:13:25.628Z,21.90
2018-04-08T10:15:56.730Z,22.10
2018-04-08T10:18:28.900Z,22.10
2018-04-08T10:20:59.398Z,22.00
2018-04-08T10:23:29.434Z,21.90
2018-04-08T10:25:59.357Z,21.90
2018-04-08T10:28:31.076Z,22.10
2018-04-08T10:31:04.443Z,22.10
2018-04-08T10:33:34.589Z,22.20
2018-04-08T10:36:06.148Z,22.20
2018-04-08T10:38:35.961Z,22.30
2018-04-08T10:41:05.466Z,22.40
2018-04-08T10:43:35.119Z,22.50
2018-04-08T10:46:05.981Z,22.60
2018-04-08T10:48:35.446Z,22.80
2018-04-08T10:51:04.802Z,22.90
2018-04-08T10:53:34.468Z,23.10
2018-04-08T10:56:04.144Z,23.50
2018-04-08T10:58:33.703Z,23.60
2018-04-08T11:01:03.785Z,23.70
2018-04-08T11:03:33.410Z,23.90
2018-04-08T11:06:03.019Z,24.10
2018-04-08T11:08:32.646Z,24.40
2018-04-08T11:11:02.043Z,24.50
2018-04-08T11:13:31.550Z,24.40
2018-04-08T11:16:04.840Z,24.40
2018-04-08T11:18:34.794Z,24.40
2018-04-08T11:21:04.863Z,24.50
2018-04-08T11:23:34.484Z,24.40
2018-04-08T11:26:11.137Z,24.30
2018-04-08T11:28:40.680Z,24.40
2018-04-08T11:31:10.648Z,24.50
2018-04-08T11:33:40.384Z,24.50
2018-04-08T11:36:10.016Z,24.70
2018-04-08T11:38:39.534Z,24.80
2018-04-08T11:41:09.205Z,25.00
2018-04-08T11:43:39.028Z,25.20
2018-04-08T11:46:08.730Z,25.30
2018-04-08T11:48:38.849Z,25.20
2018-04-08T11:51:09.284Z,25.20
2018-04-08T11:56:49.645Z,25.40
2018-04-08T11:59:19.861Z,25.40
2018-04-08T12:01:49.346Z,25.50
2018-04-08T12:04:18.931Z,25.60
2018-04-08T12:06:48.511Z,25.70
2018-04-08T12:09:18.196Z,25.80
2018-04-08T12:11:47.790Z,25.90
2018-04-08T12:14:17.768Z,26.00
2018-04-08T12:16:47.561Z,26.00
2018-04-08T12:19:17.020Z,26.00
2018-04-08T12:22:03.007Z,26.00
2018-04-08T12:24:32.858Z,26.00
2018-04-08T12:27:16.549Z,26.00
2018-04-08T12:29:58.251Z,26.10
2018-04-08T12:32:28.839Z,26.50
2018-04-08T12:35:00.416Z,26.90
2018-04-08T12:37:30.743Z,27.30
2018-04-08T12:40:00.465Z,27.30
2018-04-08T12:42:30.589Z,27.20
2018-04-08T12:45:00.490Z,27.10
2018-04-08T12:47:31.327Z,27.40
2018-04-08T12:50:01.204Z,27.40
2018-04-08T12:52:31.364Z,27.40
2018-04-08T12:55:05.364Z,27.40
2018-04-08T12:57:34.944Z,27.40
2018-04-08T13:00:03.818Z,27.30
2018-04-08T13:02:33.398Z,27.20
2018-04-08T13:05:03.050Z,27.20
2018-04-08T13:07:33.499Z,27.40
2018-04-08T13:10:03.774Z,27.60
2018-04-08T13:12:33.563Z,27.70
2018-04-08T13:15:03.853Z,27.70
2018-04-08T13:20:44.203Z,28.10
2018-04-08T13:23:13.851Z,27.60
2018-04-08T13:25:43.930Z,27.60
2018-04-08T13:28:13.375Z,27.60
2018-04-08T13:30:42.867Z,27.80
2018-04-08T13:33:15.381Z,27.50
2018-04-08T13:35:44.843Z,27.50
2018-04-08T13:38:39.325Z,27.90
2018-04-08T13:41:08.851Z,28.00
2018-04-08T13:43:51.279Z,28.10
2018-04-08T13:46:23.631Z,28.40
2018-04-08T13:48:53.586Z,28.70
2018-04-08T13:51:23.913Z,28.60
2018-04-08T13:53:55.209Z,28.70
2018-04-08T13:56:25.202Z,29.00
2018-04-08T13:58:54.914Z,29.00
2018-04-08T14:01:25.819Z,28.90
2018-04-08T14:03:55.563Z,29.00
2018-04-08T14:06:24.982Z,28.80
2018-04-08T14:08:54.524Z,28.90
2018-04-08T14:11:24.048Z,29.10
2018-04-08T14:13:53.696Z,29.50
2018-04-08T14:16:23.786Z,30.20
2018-04-08T14:18:53.720Z,30.20
2018-04-08T14:21:25.405Z,30.10
2018-04-08T14:23:55.352Z,30.10
2018-04-08T14:26:25.232Z,30.10
2018-04-08T14:31:34.607Z,30.40
2018-04-08T14:34:04.304Z,30.30
2018-04-08T14:36:33.560Z,30.60
2018-04-08T14:39:03.935Z,31.10
2018-04-08T14:41:34.272Z,31.30
2018-04-08T14:44:23.330Z,31.80
2018-04-08T14:46:56.168Z,33.00
2018-04-08T14:49:26.852Z,33.00
2018-04-08T14:51:56.648Z,32.80
2018-04-08T14:54:26.615Z,32.60
2018-04-08T14:56:57.332Z,32.70
2018-04-08T14:59:26.820Z,32.90
2018-04-08T15:02:03.694Z,33.50
2018-04-08T15:04:36.133Z,33.80
2018-04-08T15:13:26.374Z,34.40
2018-04-08T15:15:55.712Z,34.80
2018-04-08T15:18:25.176Z,34.90
2018-04-08T15:20:54.891Z,34.90
2018-04-08T15:23:24.236Z,34.90
2018-04-08T15:25:54.604Z,35.20
2018-04-08T15:28:24.423Z,35.80
2018-04-08T15:30:54.187Z,36.30
2018-04-08T15:33:23.341Z,36.40
2018-04-08T15:35:53.638Z,36.40
2018-04-08T15:38:24.468Z,36.40
2018-04-08T15:40:55.333Z,36.00
2018-04-08T15:43:25.018Z,35.60
2018-04-08T15:45:54.424Z,34.90
2018-04-08T15:48:23.979Z,34.60
2018-04-08T15:50:56.567Z,34.30
2018-04-08T15:53:28.148Z,33.30
2018-04-08T15:56:00.030Z,32.80
2018-04-08T15:58:37.477Z,32.20
2018-04-08T16:01:08.000Z,31.60
2018-04-08T16:03:38.002Z,31.20
2018-04-08T16:06:08.487Z,31.50
2018-04-08T16:08:38.564Z,31.80
2018-04-08T16:11:08.915Z,31.30
2018-04-08T16:13:42.118Z,31.30
2018-04-08T16:16:12.982Z,31.00
2018-04-08T16:18:43.660Z,30.90
2018-04-08T16:21:14.098Z,30.80
2018-04-08T16:23:44.684Z,30.90
2018-04-08T16:26:15.047Z,30.50
2018-04-08T16:28:44.723Z,30.50
2018-04-08T16:31:14.177Z,30.30
2018-04-08T16:33:43.454Z,30.00
2018-04-08T16:36:12.699Z,29.80
2018-04-08T16:38:43.138Z,29.80
2018-04-08T16:41:12.599Z,29.70
2018-04-08T16:43:42.775Z,29.90
2018-04-08T16:46:14.220Z,30.00
2018-04-08T16:48:43.696Z,30.10
2018-04-08T16:51:14.099Z,30.30
2018-04-08T16:53:43.328Z,30.00
2018-04-08T16:56:15.524Z,29.90
2018-04-08T16:58:45.969Z,30.00
2018-04-08T17:01:16.006Z,29.80
2018-04-08T17:03:47.546Z,29.30
2018-04-08T17:06:17.111Z,28.60
2018-04-08T17:08:46.602Z,28.20
2018-04-08T17:11:16.059Z,27.90
2018-04-08T17:13:54.872Z,27.60
2018-04-08T17:16:24.461Z,27.60
2018-04-08T17:18:53.894Z,27.60
2018-04-08T17:21:23.342Z,27.50
2018-04-08T17:23:58.344Z,27.30
2018-04-08T17:26:27.998Z,26.80
2018-04-08T17:28:57.229Z,26.80
2018-04-08T17:31:26.713Z,26.80
2018-04-08T17:33:55.991Z,26.60
2018-04-08T17:36:25.644Z,25.90
2018-04-08T17:38:55.144Z,25.90
2018-04-08T17:41:36.018Z,25.30
2018-04-08T17:44:05.251Z,25.30
2018-04-08T17:46:35.515Z,25.10
2018-04-08T17:49:04.988Z,24.70
2018-04-08T17:51:50.611Z,24.50
2018-04-08T17:54:21.863Z,23.80
2018-04-08T17:56:52.302Z,23.80
2018-04-08T17:59:41.896Z,23.50
2018-04-08T18:02:13.219Z,23.30
2018-04-08T18:04:42.587Z,23.20
2018-04-08T18:07:12.172Z,22.80
2018-04-08T18:09:48.693Z,22.60
2018-04-08T18:12:17.978Z,22.40
2018-04-08T18:14:48.532Z,22.20
2018-04-08T18:17:18.319Z,21.90
2018-04-08T18:19:47.740Z,21.70
2018-04-08T18:25:21.456Z,21.20
2018-04-08T18:27:51.050Z,20.90
2018-04-08T18:30:20.811Z,20.70
2018-04-08T18:32:50.624Z,20.50
2018-04-08T18:35:21.657Z,20.20
2018-04-08T18:37:51.315Z,20.20
2018-04-08T18:40:20.752Z,19.90
2018-04-08T18:42:51.999Z,19.70
2018-04-08T18:45:24.160Z,19.60
2018-04-08T18:47:55.653Z,19.50
2018-04-08T18:50:29.831Z,19.30
2018-04-08T18:55:42.765Z,19.10
2018-04-08T19:01:10.650Z,18.80
2018-04-08T19:06:17.152Z,18.50
2018-04-08T19:11:46.150Z,18.10
2018-04-08T19:14:16.437Z,18.10
2018-04-08T19:16:47.497Z,17.90
2018-04-08T19:19:26.164Z,17.80
2018-04-08T19:22:01.555Z,17.80
2018-04-08T19:27:09.756Z,17.50
2018-04-08T19:29:41.897Z,17.40
2018-04-08T19:32:19.229Z,17.30
2018-04-08T19:34:53.177Z,17.20
2018-04-08T19:37:26.214Z,17.10
2018-04-08T19:39:56.494Z,16.90
2018-04-08T19:51:50.174Z,16.50
2018-04-08T19:54:26.206Z,16.40
2018-04-08T20:03:01.888Z,16.10
2018-04-08T20:08:51.402Z,16.00
2018-04-08T20:14:36.548Z,15.80
2018-04-08T20:17:25.836Z,15.70
2018-04-08T20:19:56.912Z,15.50
2018-04-08T20:22:27.059Z,15.50
2018-04-08T20:25:00.494Z,15.50
2018-04-08T20:27:30.016Z,15.50
2018-04-08T20:29:59.732Z,15.40
2018-04-08T20:32:30.136Z,15.30
2018-04-08T20:34:59.706Z,15.30
2018-04-08T20:37:29.433Z,15.20
2018-04-08T20:39:59.001Z,15.10
2018-04-08T20:42:28.746Z,15.00
2018-04-08T20:44:58.657Z,15.00
2018-04-08T20:47:28.849Z,14.90
2018-04-08T20:49:58.301Z,14.90
2018-04-08T20:52:27.921Z,14.90
2018-04-08T20:55:02.028Z,14.80
2018-04-08T20:57:32.138Z,14.80
2018-04-08T21:00:02.113Z,14.70
2018-04-08T21:02:33.198Z,14.60
2018-04-08T21:13:21.926Z,14.40
2018-04-08T21:15:51.787Z,14.20
2018-04-08T21:18:21.571Z,14.10
2018-04-08T21:20:52.009Z,14.00
2018-04-08T21:23:21.694Z,14.00
2018-04-08T21:25:51.423Z,14.00
2018-04-08T21:28:20.746Z,14.00
2018-04-08T21:33:28.162Z,14.00
2018-04-08T21:35:57.812Z,13.90
2018-04-08T21:38:27.462Z,13.80
2018-04-08T21:40:57.717Z,13.70
2018-04-08T21:43:27.636Z,13.60
2018-04-08T21:45:57.505Z,13.70
2018-04-08T21:48:28.040Z,13.60
2018-04-08T21:50:58.270Z,13.50
2018-04-08T21:53:27.236Z,13.40
2018-04-08T21:55:56.709Z,13.40
2018-04-08T21:58:26.153Z,13.40
2018-04-08T22:00:55.634Z,13.40
2018-04-08T22:03:25.283Z,13.40
2018-04-08T22:05:54.676Z,13.30
2018-04-08T22:08:24.256Z,13.20
2018-04-08T22:10:53.850Z,13.00
2018-04-08T22:13:23.508Z,13.10
2018-04-08T22:15:53.015Z,13.00
2018-04-08T22:18:22.782Z,13.00
2018-04-08T22:20:52.339Z,12.90
2018-04-08T22:23:21.969Z,12.90
2018-04-08T22:25:51.479Z,12.80
2018-04-08T22:28:21.052Z,12.80
2018-04-08T22:30:50.663Z,12.80
2018-04-08T22:33:20.146Z,12.70
2018-04-08T22:35:49.322Z,12.70
2018-04-08T22:38:18.866Z,12.70
2018-04-08T22:40:48.538Z,12.60
